createdAt,value
2023-03-21T00:01:33.025Z,38.90
2023-03-21T00:04:01.587Z,36.40
2023-03-21T00:06:31.135Z,40.30
2023-03-21T00:08:59.378Z,37.50
2023-03-21T00:11:28.927Z,39.30
2023-03-21T00:13:58.697Z,42.50
2023-03-21T00:16:30.320Z,39.40
2023-03-21T00:19:03.853Z,34.70
2023-03-21T00:21:46.625Z,38.10
2023-03-21T00:24:23.251Z,47.70
2023-03-21T00:26:51.973Z,46.20
2023-03-21T00:29:20.828Z,43.90
2023-03-21T00:31:51.013Z,40.90
2023-03-21T00:34:26.806Z,47.80
2023-03-21T00:37:07.570Z,53.90
2023-03-21T00:39:36.380Z,60.10
2023-03-21T00:42:04.605Z,57.50
2023-03-21T00:44:36.960Z,61.20
2023-03-21T00:47:07.846Z,58.40
2023-03-21T00:49:42.368Z,62.30
2023-03-21T00:52:27.318Z,57.40
2023-03-21T00:54:59.810Z,54.30
2023-03-21T00:57:38.500Z,56.20
2023-03-21T01:00:10.903Z,54.30
2023-03-21T01:03:02.793Z,65.10
2023-03-21T01:05:54.465Z,58.20
2023-03-21T01:08:29.396Z,57.10
2023-03-21T01:11:08.372Z,55.60
2023-03-21T01:13:40.772Z,61.00
2023-03-21T01:16:13.249Z,61.60
2023-03-21T01:18:41.967Z,64.60
2023-03-21T01:21:12.899Z,64.10
2023-03-21T01:26:10.784Z,67.20
2023-03-21T01:28:39.758Z,68.20
2023-03-21T01:31:08.494Z,71.20
2023-03-21T01:33:36.936Z,72.70
2023-03-21T01:36:12.647Z,71.90
2023-03-21T01:38:43.324Z,66.50
2023-03-21T01:41:42.929Z,69.80
2023-03-21T01:44:20.539Z,66.20
2023-03-21T01:47:07.338Z,70.30
2023-03-21T01:49:53.070Z,69.80
2023-03-21T01:52:37.381Z,67.70
2023-03-21T01:55:18.745Z,64.40
2023-03-21T01:58:06.358Z,68.10
2023-03-21T02:00:51.814Z,64.50
2023-03-21T02:03:50.871Z,65.40
2023-03-21T02:07:10.350Z,63.30
2023-03-21T02:09:49.792Z,66.80
2023-03-21T02:20:22.322Z,73.70
2023-03-21T02:23:00.432Z,72.60
2023-03-21T02:26:08.142Z,72.90
2023-03-21T02:28:52.486Z,70.40
2023-03-21T02:32:06.014Z,69.60
2023-03-21T02:35:16.216Z,69.10
2023-03-21T02:37:55.175Z,71.70
2023-03-21T02:40:43.538Z,71.40
2023-03-21T02:43:23.349Z,71.60
2023-03-21T02:46:01.238Z,65.40
2023-03-21T02:48:49.749Z,69.20
2023-03-21T02:51:21.336Z,66.60
2023-03-21T02:54:20.043Z,66.40
2023-03-21T02:56:43.209Z,66.60
2023-03-21T02:59:11.543Z,66.00
2023-03-21T03:01:39.752Z,64.10
2023-03-21T03:04:20.095Z,66.10
2023-03-21T03:07:09.899Z,66.10
2023-03-21T03:10:06.011Z,64.00
2023-03-21T03:12:54.390Z,67.80
2023-03-21T03:15:45.927Z,64.40
2023-03-21T03:18:33.103Z,67.70
2023-03-21T03:21:07.613Z,64.10
2023-03-21T03:23:55.895Z,69.00
2023-03-21T03:26:45.383Z,67.50
2023-03-21T03:29:18.015Z,70.50
2023-03-21T03:32:12.392Z,68.10
2023-03-21T03:34:44.039Z,67.90
2023-03-21T03:37:14.583Z,67.50
2023-03-21T03:39:53.685Z,68.30
2023-03-21T03:42:28.778Z,62.80
2023-03-21T03:45:17.812Z,62.60
2023-03-21T03:48:07.898Z,65.20
2023-03-21T03:51:06.382Z,78.20
2023-03-21T03:54:03.943Z,88.10
2023-03-21T03:56:37.770Z,82.80
2023-03-21T03:59:07.575Z,85.80
2023-03-21T04:02:05.158Z,79.80
2023-03-21T04:04:34.694Z,78.80
2023-03-21T04:07:03.837Z,82.10
2023-03-21T04:09:43.683Z,78.30
2023-03-21T04:12:15.095Z,79.30
2023-03-21T04:14:47.149Z,78.50
2023-03-21T04:17:22.904Z,79.20
2023-03-21T04:19:57.619Z,79.50
2023-03-21T04:22:29.664Z,78.20
2023-03-21T04:25:01.629Z,74.20
2023-03-21T04:27:32.963Z,71.90
2023-03-21T04:30:19.817Z,70.90
2023-03-21T04:32:57.171Z,72.00
2023-03-21T04:35:25.961Z,63.30
2023-03-21T04:37:58.343Z,64.50
2023-03-21T04:40:26.911Z,61.50
2023-03-21T04:42:57.034Z,58.60
2023-03-21T04:45:25.446Z,61.80
2023-03-21T04:47:53.543Z,57.90
2023-03-21T04:50:25.342Z,54.90
2023-03-21T04:52:54.280Z,55.40
2023-03-21T04:55:23.170Z,60.90
2023-03-21T04:57:51.479Z,56.80
2023-03-21T05:00:21.040Z,59.00
2023-03-21T05:02:50.618Z,60.40
2023-03-21T05:05:18.895Z,57.90
2023-03-21T05:07:47.072Z,63.90
2023-03-21T05:10:20.667Z,59.00
2023-03-21T05:12:48.838Z,61.40
2023-03-21T05:22:52.823Z,58.10
2023-03-21T05:25:35.576Z,57.00
2023-03-21T05:28:11.936Z,52.60
2023-03-21T05:30:43.592Z,51.00
2023-03-21T05:33:13.324Z,51.00
2023-03-21T05:43:17.353Z,43.50
2023-03-21T05:45:48.730Z,40.70
2023-03-21T05:48:18.106Z,39.70
2023-03-21T05:50:59.882Z,38.10
2023-03-21T05:53:28.076Z,37.50
2023-03-21T05:55:56.746Z,36.50
2023-03-21T05:58:41.110Z,34.70
2023-03-21T06:01:10.590Z,32.80
2023-03-21T06:03:39.899Z,30.30
2023-03-21T06:06:14.465Z,27.00
2023-03-21T06:16:25.608Z,19.00
2023-03-21T06:18:57.228Z,21.70
2023-03-21T06:21:51.494Z,59.20
2023-03-21T06:24:20.097Z,33.20
2023-03-21T06:26:49.074Z,27.00
2023-03-21T06:29:20.835Z,22.00
2023-03-21T06:31:50.360Z,20.50
2023-03-21T06:34:18.815Z,21.50
2023-03-21T06:36:49.634Z,20.00
2023-03-21T06:39:20.592Z,19.30
2023-03-21T06:41:49.480Z,19.90
2023-03-21T06:44:19.711Z,18.20
2023-03-21T06:46:55.083Z,21.10
2023-03-21T06:49:23.954Z,18.20
2023-03-21T06:51:52.550Z,18.80
2023-03-21T06:54:22.491Z,19.20
2023-03-21T06:56:57.099Z,19.80
2023-03-21T06:59:30.360Z,21.10
2023-03-21T07:02:11.734Z,20.00
2023-03-21T07:05:00.917Z,19.70
2023-03-21T07:07:30.950Z,20.20
2023-03-21T07:10:11.460Z,17.80
2023-03-21T07:12:55.793Z,18.90
2023-03-21T07:15:45.656Z,19.60
2023-03-21T07:18:14.144Z,19.50
2023-03-21T07:20:48.183Z,18.20
2023-03-21T07:23:18.913Z,21.50
2023-03-21T07:25:50.311Z,18.00
2023-03-21T07:28:19.610Z,18.80
2023-03-21T07:30:56.408Z,18.80
2023-03-21T07:33:25.377Z,16.60
2023-03-21T07:35:55.264Z,17.60
2023-03-21T07:38:28.333Z,18.00
2023-03-21T07:40:58.505Z,17.20
2023-03-21T07:43:26.682Z,18.00
2023-03-21T07:46:00.055Z,18.30
2023-03-21T07:48:29.178Z,19.10
2023-03-21T07:50:57.668Z,19.10
2023-03-21T07:53:26.221Z,20.10
2023-03-21T08:03:30.058Z,24.90
2023-03-21T08:06:04.018Z,23.60
2023-03-21T08:08:33.595Z,23.00
2023-03-21T08:11:03.690Z,22.10
2023-03-21T08:13:33.777Z,26.40
2023-03-21T08:16:02.131Z,27.40
2023-03-21T08:18:30.588Z,32.50
2023-03-21T08:20:59.435Z,35.00
2023-03-21T08:23:27.515Z,33.20
2023-03-21T08:25:56.687Z,33.40
2023-03-21T08:28:24.999Z,33.70
2023-03-21T08:30:53.346Z,37.20
2023-03-21T08:33:21.834Z,36.00
2023-03-21T08:35:51.849Z,32.70
2023-03-21T08:38:20.775Z,32.10
2023-03-21T08:40:48.788Z,29.80
2023-03-21T08:43:17.504Z,28.50
2023-03-21T08:45:45.964Z,29.40
2023-03-21T08:48:19.565Z,29.70
2023-03-21T08:50:47.915Z,28.80
2023-03-21T08:53:16.236Z,28.80
2023-03-21T08:55:44.828Z,32.10
2023-03-21T08:58:17.995Z,28.10
2023-03-21T09:00:46.985Z,30.60
2023-03-21T09:03:16.414Z,32.20
2023-03-21T09:05:45.709Z,29.80
2023-03-21T09:08:14.434Z,36.30
2023-03-21T09:10:42.664Z,36.10
2023-03-21T09:13:11.045Z,33.30
2023-03-21T10:00:21.642Z,28.30
2023-03-21T10:02:57.383Z,29.80
2023-03-21T10:05:27.860Z,30.40
2023-03-21T10:08:07.208Z,29.90
2023-03-21T10:10:43.568Z,27.30
2023-03-21T10:13:36.343Z,30.30
2023-03-21T10:16:16.067Z,28.10
2023-03-21T10:18:44.559Z,28.80
2023-03-21T10:21:51.504Z,30.50
2023-03-21T10:24:14.304Z,28.70
2023-03-21T10:26:42.787Z,29.00
2023-03-21T10:29:14.461Z,31.50
2023-03-21T10:31:42.653Z,30.20
2023-03-21T10:34:18.420Z,31.30
2023-03-21T10:36:47.052Z,43.50
2023-03-21T10:39:18.869Z,33.50
2023-03-21T10:41:47.046Z,31.40
2023-03-21T10:44:17.518Z,30.50
2023-03-21T10:46:53.833Z,30.60
2023-03-21T10:49:22.072Z,28.80
2023-03-21T10:51:51.912Z,30.40
2023-03-21T10:54:21.403Z,31.90
2023-03-21T10:57:09.113Z,33.60
2023-03-21T11:00:21.665Z,34.10
2023-03-21T11:03:22.074Z,35.50
2023-03-21T11:05:57.396Z,36.40
2023-03-21T11:08:27.437Z,40.30
2023-03-21T11:11:12.546Z,43.20
2023-03-21T11:13:44.465Z,45.20
2023-03-21T11:16:19.517Z,44.30
2023-03-21T11:18:52.370Z,47.00
2023-03-21T11:21:24.286Z,45.60
2023-03-21T11:23:53.988Z,45.90
2023-03-21T11:26:32.779Z,42.30
2023-03-21T11:29:01.553Z,36.70
2023-03-21T11:31:39.869Z,37.20
2023-03-21T11:34:12.420Z,37.60
2023-03-21T11:37:41.649Z,34.00
2023-03-21T11:40:20.027Z,32.80
2023-03-21T11:42:53.163Z,32.50
2023-03-21T11:45:24.501Z,29.60
2023-03-21T11:47:58.184Z,28.90
2023-03-21T11:50:35.434Z,26.00
2023-03-21T11:53:13.650Z,27.90
2023-03-21T11:56:02.645Z,24.20
2023-03-21T11:58:52.574Z,26.70
2023-03-21T12:01:24.114Z,25.40
2023-03-21T12:04:15.181Z,25.00
2023-03-21T12:06:55.568Z,26.70
2023-03-21T12:12:02.423Z,25.10
2023-03-21T12:14:48.485Z,26.90
2023-03-21T12:17:40.714Z,27.10
2023-03-21T12:20:31.083Z,26.10
2023-03-21T12:23:04.238Z,25.30
2023-03-21T12:25:44.980Z,25.60
2023-03-21T12:29:00.242Z,27.30
2023-03-21T12:31:36.295Z,26.10
2023-03-21T12:34:18.110Z,24.50
2023-03-21T12:37:25.038Z,24.20
2023-03-21T12:39:57.671Z,24.30
2023-03-21T12:42:40.269Z,24.90
2023-03-21T12:45:46.947Z,24.40
2023-03-21T12:48:42.594Z,25.10
2023-03-21T12:51:20.159Z,25.90
2023-03-21T12:54:21.513Z,30.00
2023-03-21T12:57:03.121Z,42.10
2023-03-21T13:00:12.182Z,34.60
2023-03-21T13:03:01.023Z,28.30
2023-03-21T13:05:32.621Z,25.20
2023-03-21T13:10:49.597Z,25.80
2023-03-21T13:13:27.385Z,26.30
2023-03-21T13:16:07.772Z,25.80
2023-03-21T13:18:39.434Z,25.80
2023-03-21T13:21:22.326Z,26.20
2023-03-21T13:24:05.713Z,30.00
2023-03-21T13:26:40.069Z,26.00
2023-03-21T13:29:22.915Z,27.50
2023-03-21T13:31:53.855Z,27.10
2023-03-21T13:34:24.373Z,25.80
2023-03-21T13:36:54.338Z,27.30
2023-03-21T13:39:28.148Z,24.00
2023-03-21T13:41:56.645Z,27.50
2023-03-21T13:44:42.146Z,27.60
2023-03-21T13:47:38.397Z,27.40
2023-03-21T13:50:31.043Z,26.80
2023-03-21T13:53:15.685Z,28.20
2023-03-21T13:55:46.923Z,27.00
2023-03-21T13:58:50.544Z,27.00
2023-03-21T14:01:42.639Z,33.00
2023-03-21T14:04:24.145Z,26.30
2023-03-21T14:07:07.321Z,29.80
2023-03-21T14:09:48.581Z,38.30
2023-03-21T14:12:25.240Z,35.60
2023-03-21T14:15:20.181Z,36.70
2023-03-21T14:17:57.549Z,33.80
2023-03-21T14:20:29.605Z,36.30
2023-03-21T14:22:57.863Z,35.80
2023-03-21T14:25:37.226Z,32.20
2023-03-21T14:28:21.849Z,28.60
2023-03-21T14:30:55.933Z,28.90
2023-03-21T14:33:28.666Z,28.30
2023-03-21T14:36:02.077Z,28.60
2023-03-21T14:38:35.732Z,29.80
2023-03-21T14:41:04.773Z,29.90
2023-03-21T14:43:37.756Z,25.50
2023-03-21T14:46:06.890Z,25.40
2023-03-21T14:48:35.843Z,26.10
2023-03-21T14:51:10.487Z,26.40
2023-03-21T14:53:41.649Z,24.70
2023-03-21T14:56:17.262Z,24.60
2023-03-21T14:58:53.749Z,26.00
2023-03-21T15:01:32.713Z,25.20
2023-03-21T15:04:01.866Z,24.50
2023-03-21T15:06:30.753Z,24.90
2023-03-21T15:09:04.355Z,24.60
2023-03-21T15:11:37.747Z,25.90
2023-03-21T15:14:10.430Z,26.30
2023-03-21T15:16:40.102Z,27.00
2023-03-21T15:19:09.858Z,27.30
2023-03-21T15:21:39.778Z,25.50
2023-03-21T15:24:15.919Z,27.90
2023-03-21T15:26:50.562Z,28.40
2023-03-21T15:29:18.975Z,28.60
2023-03-21T15:31:48.717Z,27.90
2023-03-21T15:34:20.209Z,29.50
2023-03-21T15:39:20.130Z,28.80
2023-03-21T15:42:02.910Z,30.80
2023-03-21T15:44:31.427Z,30.80
2023-03-21T15:47:00.310Z,32.20
2023-03-21T15:49:33.061Z,32.10
2023-03-21T15:52:11.689Z,32.90
2023-03-21T15:54:57.120Z,31.60
2023-03-21T15:57:33.191Z,32.00
2023-03-21T16:00:26.091Z,32.10
2023-03-21T16:02:59.560Z,31.50
2023-03-21T16:05:30.824Z,37.70
2023-03-21T16:08:04.695Z,40.70
2023-03-21T16:10:38.515Z,38.10
2023-03-21T16:13:07.452Z,40.40
2023-03-21T16:15:35.683Z,40.00
2023-03-21T16:18:06.618Z,41.80
2023-03-21T16:20:41.931Z,44.10
2023-03-21T16:23:14.923Z,54.40
2023-03-21T16:25:44.665Z,56.00
2023-03-21T16:28:16.449Z,47.90
2023-03-21T16:30:44.985Z,46.30
2023-03-21T16:33:14.783Z,48.50
2023-03-21T16:35:44.438Z,46.30
2023-03-21T16:38:13.805Z,57.70
2023-03-21T16:40:44.032Z,61.40
2023-03-21T16:43:12.747Z,73.10
2023-03-21T16:45:44.413Z,67.00
2023-03-21T16:48:18.437Z,52.50
2023-03-21T16:50:48.334Z,47.00
2023-03-21T16:53:17.260Z,47.20
2023-03-21T16:55:46.345Z,47.30
2023-03-21T16:58:22.032Z,61.20
2023-03-21T17:00:51.117Z,108.70
2023-03-21T17:03:19.511Z,113.60
2023-03-21T17:05:50.041Z,113.90
2023-03-21T17:08:20.463Z,73.60
2023-03-21T17:10:48.999Z,64.40
2023-03-21T17:13:19.462Z,59.20
2023-03-21T17:15:48.737Z,61.80
2023-03-21T17:18:18.940Z,67.00
2023-03-21T17:20:49.475Z,73.90
2023-03-21T17:23:18.806Z,91.70
2023-03-21T17:25:52.357Z,93.40
2023-03-21T17:28:22.130Z,99.90
2023-03-21T17:30:52.155Z,79.80
2023-03-21T17:33:22.378Z,79.20
2023-03-21T17:35:51.013Z,78.20
2023-03-21T17:38:20.157Z,74.50
2023-03-21T17:40:50.102Z,80.10
2023-03-21T17:43:24.344Z,85.90
2023-03-21T17:45:52.840Z,85.80
2023-03-21T17:48:22.701Z,77.00
2023-03-21T17:50:51.433Z,76.80
2023-03-21T17:53:20.162Z,83.20
2023-03-21T17:55:56.464Z,71.60
2023-03-21T17:58:28.730Z,67.30
2023-03-21T18:00:57.900Z,68.30
2023-03-21T18:03:26.566Z,78.30
2023-03-21T18:05:54.747Z,81.70
2023-03-21T18:08:29.665Z,97.60
2023-03-21T18:10:59.807Z,99.00
2023-03-21T18:13:28.423Z,97.70
2023-03-21T18:15:56.752Z,94.90
2023-03-21T18:18:27.419Z,84.20
2023-03-21T18:20:58.362Z,86.00
2023-03-21T18:23:27.338Z,82.10
2023-03-21T18:25:56.505Z,87.40
2023-03-21T18:28:25.410Z,85.00
2023-03-21T18:31:18.003Z,89.40
2023-03-21T18:33:46.895Z,84.90
2023-03-21T18:36:25.022Z,97.50
2023-03-21T18:38:56.971Z,96.20
2023-03-21T18:41:26.112Z,88.50
2023-03-21T18:44:13.989Z,94.50
2023-03-21T18:46:47.577Z,86.30
2023-03-21T18:52:07.082Z,77.90
2023-03-21T18:54:36.733Z,75.70
2023-03-21T18:57:34.647Z,77.20
2023-03-21T18:59:55.056Z,79.90
2023-03-21T19:02:23.473Z,80.60
2023-03-21T19:04:52.364Z,85.60
2023-03-21T19:07:20.999Z,88.30
2023-03-21T19:10:15.419Z,80.30
2023-03-21T19:12:43.250Z,79.00
2023-03-21T19:15:11.961Z,81.40
2023-03-21T19:20:32.655Z,90.30
2023-03-21T19:23:01.834Z,88.30
2023-03-21T19:25:30.469Z,97.40
2023-03-21T19:27:59.353Z,101.70
2023-03-21T19:30:32.122Z,98.60
2023-03-21T19:33:02.102Z,91.30
2023-03-21T19:35:31.321Z,90.40
2023-03-21T19:38:00.652Z,93.60
2023-03-21T19:40:29.830Z,83.60
2023-03-21T19:42:58.196Z,76.80
2023-03-21T19:45:29.484Z,74.60
2023-03-21T19:47:57.882Z,76.90
2023-03-21T19:51:13.400Z,76.70
2023-03-21T19:53:19.782Z,72.50
2023-03-21T19:55:54.145Z,81.10
2023-03-21T19:58:24.923Z,80.50
2023-03-21T20:00:53.162Z,81.00
2023-03-21T20:03:22.414Z,81.20
2023-03-21T20:05:50.904Z,82.50
2023-03-21T20:08:20.631Z,80.50
2023-03-21T20:13:18.954Z,73.70
2023-03-21T20:15:48.281Z,82.40
2023-03-21T20:18:20.670Z,83.40
2023-03-21T20:20:48.948Z,87.30
2023-03-21T20:23:17.336Z,86.70
2023-03-21T20:25:47.248Z,88.20
2023-03-21T20:28:24.339Z,83.80
2023-03-21T20:30:58.809Z,85.80
2023-03-21T20:33:28.148Z,107.10
2023-03-21T20:38:51.995Z,108.00
2023-03-21T20:41:20.720Z,189.80
2023-03-21T20:46:38.621Z,123.60
2023-03-21T20:49:09.463Z,117.20
2023-03-21T20:54:27.624Z,96.30
2023-03-21T20:56:56.862Z,93.30
2023-03-21T20:59:28.143Z,95.60
2023-03-21T21:03:41.483Z,83.70
2023-03-21T21:06:15.955Z,89.60
2023-03-21T21:08:45.961Z,87.20
2023-03-21T21:12:04.754Z,81.70
2023-03-21T21:14:07.256Z,78.60
2023-03-21T21:16:37.480Z,76.50
2023-03-21T21:19:07.392Z,75.90
2023-03-21T21:21:36.316Z,74.30
2023-03-21T21:24:07.648Z,74.20
2023-03-21T21:26:41.301Z,76.80
2023-03-21T21:29:17.229Z,90.30
2023-03-21T21:31:49.352Z,90.00
2023-03-21T21:34:20.400Z,84.30
2023-03-21T21:36:50.145Z,104.00
2023-03-21T21:39:18.547Z,130.20
2023-03-21T21:41:46.997Z,112.60
2023-03-21T21:44:16.596Z,103.90
2023-03-21T21:46:45.265Z,112.00
2023-03-21T21:49:14.580Z,113.90
2023-03-21T21:54:26.388Z,127.20
2023-03-21T21:56:54.600Z,119.10
2023-03-21T21:59:24.522Z,95.10
2023-03-21T22:01:58.925Z,110.70
2023-03-21T22:04:28.052Z,110.20
2023-03-21T22:06:56.688Z,94.30
2023-03-21T22:09:25.785Z,86.30
2023-03-21T22:11:57.634Z,76.50
2023-03-21T22:14:30.772Z,74.00
2023-03-21T22:17:06.080Z,80.40
2023-03-21T22:19:34.451Z,78.90
2023-03-21T22:22:09.508Z,72.80
2023-03-21T22:24:39.297Z,93.30
2023-03-21T22:27:07.962Z,75.30
2023-03-21T22:29:36.256Z,76.90
2023-03-21T22:32:05.356Z,75.50
2023-03-21T22:34:33.753Z,76.10
2023-03-21T22:37:02.748Z,78.60
2023-03-21T22:39:31.527Z,75.60
2023-03-21T22:42:04.861Z,80.40
2023-03-21T22:44:37.496Z,78.50
2023-03-21T22:47:08.089Z,76.50
2023-03-21T22:49:38.320Z,73.90
2023-03-21T22:52:07.199Z,71.00
2023-03-21T22:54:43.398Z,72.10
2023-03-21T22:57:13.797Z,69.30
2023-03-21T22:59:43.293Z,71.80
2023-03-21T23:02:12.295Z,73.20
2023-03-21T23:04:41.968Z,66.60
2023-03-21T23:07:10.809Z,64.00
2023-03-21T23:09:39.207Z,64.00
2023-03-21T23:12:07.789Z,65.40
2023-03-21T23:14:37.413Z,62.00
2023-03-21T23:17:10.594Z,58.30
2023-03-21T23:19:41.163Z,57.40
2023-03-21T23:22:11.903Z,59.60
2023-03-21T23:24:41.662Z,68.20
2023-03-21T23:27:09.756Z,79.40
2023-03-21T23:29:39.144Z,74.00
2023-03-21T23:32:07.920Z,67.60
2023-03-21T23:34:37.130Z,65.20
2023-03-21T23:37:07.265Z,62.30
2023-03-21T23:39:35.639Z,60.10
2023-03-21T23:42:04.738Z,59.00
2023-03-21T23:44:33.520Z,58.30
2023-03-21T23:47:05.601Z,57.00
2023-03-21T23:49:38.156Z,57.90
2023-03-21T23:52:06.714Z,59.00
2023-03-21T23:54:35.130Z,57.90
2023-03-21T23:57:04.531Z,58.00
2023-03-21T23:59:40.890Z,57.10
